sensor_id;sensor_type;location;lat;lon;timestamp;pressure;altitude;pressure_sealevel;temperature;humidity
53546;BME280;39432;51.902;10.844;2023-12-29T00:01:29;98864.38;;;9.23;100.00
53546;BME280;39432;51.902;10.844;2023-12-29T00:04:20;98858.06;;;9.12;100.00
53546;BME280;39432;51.902;10.844;2023-12-29T00:07:10;98863.53;;;9.22;100.00
53546;BME280;39432;51.902;10.844;2023-12-29T00:10:04;98861.13;;;9.31;100.00
53546;BME280;39432;51.902;10.844;2023-12-29T00:12:54;98858.16;;;9.43;100.00
53546;BME280;39432;51.902;10.844;2023-12-29T00:15:44;98876.75;;;9.46;100.00
53546;BME280;39432;51.902;10.844;2023-12-29T00:18:37;98858.31;;;9.11;100.00
53546;BME280;39432;51.902;10.844;2023-12-29T00:21:28;98850.50;;;9.50;100.00
53546;BME280;39432;51.902;10.844;2023-12-29T00:24:18;98847.22;;;9.43;100.00
53546;BME280;39432;51.902;10.844;2023-12-29T00:27:11;98837.66;;;9.30;100.00
53546;BME280;39432;51.902;10.844;2023-12-29T00:30:01;98817.50;;;9.72;100.00
53546;BME280;39432;51.902;10.844;2023-12-29T00:32:52;98811.41;;;9.19;100.00
53546;BME280;39432;51.902;10.844;2023-12-29T00:35:43;98787.09;;;9.17;100.00
53546;BME280;39432;51.902;10.844;2023-12-29T00:38:34;98802.44;;;9.44;100.00
53546;BME280;39432;51.902;10.844;2023-12-29T00:41:24;98806.31;;;9.63;100.00
53546;BME280;39432;51.902;10.844;2023-12-29T00:44:17;98811.34;;;9.04;100.00
53546;BME280;39432;51.902;10.844;2023-12-29T00:47:07;98814.19;;;9.29;100.00
53546;BME280;39432;51.902;10.844;2023-12-29T00:49:57;98815.53;;;9.32;100.00
53546;BME280;39432;51.902;10.844;2023-12-29T00:52:47;98813.28;;;9.08;100.00
53546;BME280;39432;51.902;10.844;2023-12-29T00:55:37;98805.25;;;8.81;100.00
53546;BME280;39432;51.902;10.844;2023-12-29T00:58:27;98794.81;;;9.41;100.00
53546;BME280;39432;51.902;10.844;2023-12-29T01:01:20;98781.19;;;9.61;100.00
53546;BME280;39432;51.902;10.844;2023-12-29T01:04:12;98791.59;;;10.00;100.00
53546;BME280;39432;51.902;10.844;2023-12-29T01:07:02;98786.56;;;9.15;100.00
53546;BME280;39432;51.902;10.844;2023-12-29T01:09:53;98794.59;;;9.68;100.00
53546;BME280;39432;51.902;10.844;2023-12-29T01:12:43;98780.09;;;9.57;100.00
53546;BME280;39432;51.902;10.844;2023-12-29T01:15:33;98779.03;;;9.73;100.00
53546;BME280;39432;51.902;10.844;2023-12-29T01:18:26;98769.41;;;9.25;100.00
53546;BME280;39432;51.902;10.844;2023-12-29T01:21:16;98770.78;;;9.43;100.00
53546;BME280;39432;51.902;10.844;2023-12-29T01:24:06;98772.97;;;9.41;100.00
53546;BME280;39432;51.902;10.844;2023-12-29T01:26:58;98788.31;;;9.67;100.00
53546;BME280;39432;51.902;10.844;2023-12-29T01:29:51;98769.19;;;9.62;100.00
53546;BME280;39432;51.902;10.844;2023-12-29T01:32:42;98744.88;;;9.50;100.00
53546;BME280;39432;51.902;10.844;2023-12-29T01:35:34;98731.47;;;9.69;100.00
53546;BME280;39432;51.902;10.844;2023-12-29T01:38:26;98749.19;;;9.26;100.00
53546;BME280;39432;51.902;10.844;2023-12-29T01:41:19;98748.97;;;9.58;100.00
53546;BME280;39432;51.902;10.844;2023-12-29T01:44:20;98744.84;;;9.61;100.00
53546;BME280;39432;51.902;10.844;2023-12-29T01:47:13;98734.78;;;9.51;100.00
53546;BME280;39432;51.902;10.844;2023-12-29T01:50:04;98742.13;;;9.45;100.00
53546;BME280;39432;51.902;10.844;2023-12-29T01:52:59;98749.50;;;9.60;100.00
53546;BME280;39432;51.902;10.844;2023-12-29T01:55:51;98747.81;;;9.34;100.00
53546;BME280;39432;51.902;10.844;2023-12-29T01:58:41;98734.19;;;9.34;100.00
53546;BME280;39432;51.902;10.844;2023-12-29T02:01:32;98722.47;;;9.38;100.00
53546;BME280;39432;51.902;10.844;2023-12-29T02:04:23;98727.66;;;9.40;100.00
53546;BME280;39432;51.902;10.844;2023-12-29T02:07:14;98721.63;;;9.22;100.00
53546;BME280;39432;51.902;10.844;2023-12-29T02:10:08;98715.63;;;9.36;100.00
53546;BME280;39432;51.902;10.844;2023-12-29T02:13:03;98711.78;;;9.21;100.00
53546;BME280;39432;51.902;10.844;2023-12-29T02:15:56;98723.00;;;9.20;100.00
53546;BME280;39432;51.902;10.844;2023-12-29T02:18:50;98733.13;;;9.35;100.00
53546;BME280;39432;51.902;10.844;2023-12-29T02:21:41;98733.66;;;9.32;100.00
53546;BME280;39432;51.902;10.844;2023-12-29T02:24:33;98721.63;;;9.33;100.00
53546;BME280;39432;51.902;10.844;2023-12-29T02:27:34;98712.34;;;9.44;100.00
53546;BME280;39432;51.902;10.844;2023-12-29T02:30:30;98711.25;;;9.50;100.00
53546;BME280;39432;51.902;10.844;2023-12-29T02:33:23;98704.72;;;9.46;100.00
53546;BME280;39432;51.902;10.844;2023-12-29T02:36:16;98705.84;;;9.45;100.00
53546;BME280;39432;51.902;10.844;2023-12-29T02:39:06;98706.88;;;9.34;100.00
53546;BME280;39432;51.902;10.844;2023-12-29T02:41:57;98699.53;;;9.49;100.00
53546;BME280;39432;51.902;10.844;2023-12-29T02:44:50;98694.06;;;9.44;100.00
53546;BME280;39432;51.902;10.844;2023-12-29T02:47:41;98674.94;;;9.55;100.00
53546;BME280;39432;51.902;10.844;2023-12-29T02:50:32;98675.22;;;9.28;100.00
53546;BME280;39432;51.902;10.844;2023-12-29T02:53:22;98682.91;;;9.56;100.00
53546;BME280;39432;51.902;10.844;2023-12-29T02:56:12;98662.69;;;9.57;100.00
53546;BME280;39432;51.902;10.844;2023-12-29T02:59:02;98659.13;;;9.57;100.00
53546;BME280;39432;51.902;10.844;2023-12-29T03:01:56;98644.09;;;9.39;100.00
53546;BME280;39432;51.902;10.844;2023-12-29T03:04:48;98646.28;;;9.67;100.00
53546;BME280;39432;51.902;10.844;2023-12-29T03:07:38;98646.84;;;9.54;100.00
53546;BME280;39432;51.902;10.844;2023-12-29T03:10:29;98636.47;;;9.51;100.00
53546;BME280;39432;51.902;10.844;2023-12-29T03:13:19;98646.28;;;9.62;100.00
53546;BME280;39432;51.902;10.844;2023-12-29T03:16:09;98650.66;;;9.43;100.00
53546;BME280;39432;51.902;10.844;2023-12-29T03:19:02;98637.56;;;9.45;100.00
53546;BME280;39432;51.902;10.844;2023-12-29T03:21:53;98634.81;;;9.50;100.00
53546;BME280;39432;51.902;10.844;2023-12-29T03:24:43;98633.47;;;9.53;100.00
53546;BME280;39432;51.902;10.844;2023-12-29T03:27:33;98634.28;;;9.53;100.00
53546;BME280;39432;51.902;10.844;2023-12-29T03:30:24;98639.19;;;9.56;100.00
53546;BME280;39432;51.902;10.844;2023-12-29T03:33:14;98624.97;;;9.69;100.00
53546;BME280;39432;51.902;10.844;2023-12-29T03:36:08;98634.28;;;9.63;100.00
53546;BME280;39432;51.902;10.844;2023-12-29T03:39:00;98626.09;;;9.58;100.00
53546;BME280;39432;51.902;10.844;2023-12-29T03:41:50;98632.66;;;9.37;100.00
53546;BME280;39432;51.902;10.844;2023-12-29T03:44:42;98627.19;;;9.37;100.00
53546;BME280;39432;51.902;10.844;2023-12-29T03:47:32;98636.47;;;9.31;100.00
53546;BME280;39432;51.902;10.844;2023-12-29T03:50:24;98615.75;;;9.14;100.00
53546;BME280;39432;51.902;10.844;2023-12-29T03:53:17;98594.72;;;9.10;100.00
53546;BME280;39432;51.902;10.844;2023-12-29T03:56:13;98586.53;;;9.10;100.00
53546;BME280;39432;51.902;10.844;2023-12-29T03:59:04;98590.09;;;9.10;100.00
53546;BME280;39432;51.902;10.844;2023-12-29T04:01:54;98592.28;;;9.08;100.00
53546;BME280;39432;51.902;10.844;2023-12-29T04:04:44;98585.19;;;9.12;100.00
53546;BME280;39432;51.902;10.844;2023-12-29T04:07:35;98573.19;;;9.18;100.00
53546;BME280;39432;51.902;10.844;2023-12-29T04:10:27;98577.53;;;9.24;100.00
53546;BME280;39432;51.902;10.844;2023-12-29T04:13:17;98583.53;;;9.32;100.00
53546;BME280;39432;51.902;10.844;2023-12-29T04:16:08;98588.44;;;9.30;100.00
53546;BME280;39432;51.902;10.844;2023-12-29T04:18:58;98588.16;;;9.26;100.00
53546;BME280;39432;51.902;10.844;2023-12-29T04:21:48;98604.25;;;9.28;100.00
53546;BME280;39432;51.902;10.844;2023-12-29T04:24:39;98608.91;;;9.17;100.00
53546;BME280;39432;51.902;10.844;2023-12-29T04:27:32;98620.38;;;9.14;100.00
53546;BME280;39432;51.902;10.844;2023-12-29T04:30:22;98634.31;;;9.12;100.00
53546;BME280;39432;51.902;10.844;2023-12-29T04:33:14;98620.91;;;9.01;100.00
53546;BME280;39432;51.902;10.844;2023-12-29T04:36:05;98619.00;;;8.96;100.00
53546;BME280;39432;51.902;10.844;2023-12-29T04:38:56;98628.84;;;8.97;100.00
53546;BME280;39432;51.902;10.844;2023-12-29T04:41:46;98640.28;;;8.99;100.00
53546;BME280;39432;51.902;10.844;2023-12-29T04:44:38;98647.38;;;9.05;100.00
53546;BME280;39432;51.902;10.844;2023-12-29T04:47:29;98644.41;;;9.07;100.00
53546;BME280;39432;51.902;10.844;2023-12-29T04:50:19;98649.03;;;9.01;100.00
53546;BME280;39432;51.902;10.844;2023-12-29T04:53:09;98644.63;;;8.95;100.00
53546;BME280;39432;51.902;10.844;2023-12-29T04:55:59;98632.66;;;9.01;100.00
53546;BME280;39432;51.902;10.844;2023-12-29T04:58:51;98628.28;;;9.05;100.00
53546;BME280;39432;51.902;10.844;2023-12-29T05:01:44;98631.00;;;9.10;100.00
53546;BME280;39432;51.902;10.844;2023-12-29T05:04:34;98634.31;;;9.07;100.00
53546;BME280;39432;51.902;10.844;2023-12-29T05:07:26;98650.09;;;9.05;100.00
53546;BME280;39432;51.902;10.844;2023-12-29T05:10:16;98623.91;;;9.09;100.00
53546;BME280;39432;51.902;10.844;2023-12-29T05:13:07;98627.19;;;9.16;100.00
53546;BME280;39432;51.902;10.844;2023-12-29T05:15:57;98612.44;;;9.17;100.00
53546;BME280;39432;51.902;10.844;2023-12-29T05:18:49;98615.19;;;9.17;100.00
53546;BME280;39432;51.902;10.844;2023-12-29T05:21:40;98606.72;;;9.09;100.00
53546;BME280;39432;51.902;10.844;2023-12-29T05:24:30;98610.28;;;8.99;100.00
53546;BME280;39432;51.902;10.844;2023-12-29T05:27:20;98612.19;;;8.98;100.00
53546;BME280;39432;51.902;10.844;2023-12-29T05:30:12;98614.38;;;9.07;100.00
53546;BME280;39432;51.902;10.844;2023-12-29T05:33:03;98617.66;;;9.09;100.00
53546;BME280;39432;51.902;10.844;2023-12-29T05:35:56;98605.34;;;9.06;100.00
53546;BME280;39432;51.902;10.844;2023-12-29T05:38:46;98598.28;;;9.05;100.00
53546;BME280;39432;51.902;10.844;2023-12-29T05:41:36;98605.38;;;9.01;100.00
53546;BME280;39432;51.902;10.844;2023-12-29T05:44:26;98605.38;;;9.01;100.00
53546;BME280;39432;51.902;10.844;2023-12-29T05:47:17;98602.91;;;9.00;100.00
53546;BME280;39432;51.902;10.844;2023-12-29T05:50:08;98604.28;;;9.12;100.00
53546;BME280;39432;51.902;10.844;2023-12-29T05:53:01;98593.38;;;9.12;100.00
53546;BME280;39432;51.902;10.844;2023-12-29T05:55:52;98609.19;;;9.05;100.00
53546;BME280;39432;51.902;10.844;2023-12-29T05:58:43;98599.09;;;9.11;100.00
53546;BME280;39432;51.902;10.844;2023-12-29T06:01:33;98592.28;;;8.93;100.00
53546;BME280;39432;51.902;10.844;2023-12-29T06:04:23;98599.38;;;9.04;100.00
53546;BME280;39432;51.902;10.844;2023-12-29T06:07:14;98608.09;;;9.01;100.00
53546;BME280;39432;51.902;10.844;2023-12-29T06:10:07;98602.66;;;9.01;100.00
53546;BME280;39432;51.902;10.844;2023-12-29T06:12:58;98608.66;;;9.08;100.00
53546;BME280;39432;51.902;10.844;2023-12-29T06:15:48;98597.16;;;9.16;100.00
53546;BME280;39432;51.902;10.844;2023-12-29T06:18:38;98609.72;;;9.28;100.00
53546;BME280;39432;51.902;10.844;2023-12-29T06:21:29;98605.34;;;9.32;100.00
53546;BME280;39432;51.902;10.844;2023-12-29T06:24:19;98616.00;;;9.28;100.00
53546;BME280;39432;51.902;10.844;2023-12-29T06:27:12;98614.94;;;9.14;100.00
53546;BME280;39432;51.902;10.844;2023-12-29T06:30:02;98621.72;;;9.11;100.00
53546;BME280;39432;51.902;10.844;2023-12-29T06:32:52;98628.81;;;9.17;100.00
53546;BME280;39432;51.902;10.844;2023-12-29T06:35:43;98620.91;;;9.11;100.00
53546;BME280;39432;51.902;10.844;2023-12-29T06:38:33;98627.47;;;9.25;100.00
53546;BME280;39432;51.902;10.844;2023-12-29T06:41:23;98629.38;;;9.19;100.00
53546;BME280;39432;51.902;10.844;2023-12-29T06:44:16;98611.09;;;9.45;100.00
53546;BME280;39432;51.902;10.844;2023-12-29T06:47:06;98601.22;;;9.60;100.00
53546;BME280;39432;51.902;10.844;2023-12-29T06:49:56;98620.09;;;9.51;100.00
53546;BME280;39432;51.902;10.844;2023-12-29T06:52:46;98619.00;;;9.57;100.00
53546;BME280;39432;51.902;10.844;2023-12-29T06:55:37;98612.44;;;9.53;100.00
53546;BME280;39432;51.902;10.844;2023-12-29T06:58:27;98582.09;;;9.65;100.00
53546;BME280;39432;51.902;10.844;2023-12-29T07:01:20;98594.41;;;9.57;100.00
53546;BME280;39432;51.902;10.844;2023-12-29T07:04:10;98602.84;;;9.71;100.00
53546;BME280;39432;51.902;10.844;2023-12-29T07:07:01;98607.22;;;9.67;100.00
53546;BME280;39432;51.902;10.844;2023-12-29T07:09:51;98602.53;;;9.88;100.00
53546;BME280;39432;51.902;10.844;2023-12-29T07:12:41;98600.66;;;9.73;100.00
53546;BME280;39432;51.902;10.844;2023-12-29T07:15:31;98590.56;;;9.73;100.00
53546;BME280;39432;51.902;10.844;2023-12-29T07:18:24;98605.88;;;9.59;100.00
53546;BME280;39432;51.902;10.844;2023-12-29T07:21:15;98596.03;;;9.68;100.00
53546;BME280;39432;51.902;10.844;2023-12-29T07:24:06;98606.13;;;9.73;100.00
53546;BME280;39432;51.902;10.844;2023-12-29T07:26:57;98608.00;;;9.77;100.00
53546;BME280;39432;51.902;10.844;2023-12-29T07:29:47;98610.78;;;9.62;100.00
53546;BME280;39432;51.902;10.844;2023-12-29T07:32:37;98632.66;;;9.57;100.00
53546;BME280;39432;51.902;10.844;2023-12-29T07:35:30;98628.00;;;9.68;100.00
53546;BME280;39432;51.902;10.844;2023-12-29T07:38:20;98628.25;;;9.66;100.00
53546;BME280;39432;51.902;10.844;2023-12-29T07:41:10;98629.91;;;9.67;100.00
53546;BME280;39432;51.902;10.844;2023-12-29T07:44:00;98623.59;;;9.72;100.00
53546;BME280;39432;51.902;10.844;2023-12-29T07:46:51;98628.78;;;9.73;100.00
53546;BME280;39432;51.902;10.844;2023-12-29T07:49:41;98641.34;;;9.69;100.00
53546;BME280;39432;51.902;10.844;2023-12-29T07:52:34;98659.38;;;9.65;100.00
53546;BME280;39432;51.902;10.844;2023-12-29T07:55:24;98651.19;;;9.70;100.00
53546;BME280;39432;51.902;10.844;2023-12-29T07:58:14;98650.66;;;9.73;100.00
53546;BME280;39432;51.902;10.844;2023-12-29T08:01:04;98630.44;;;9.64;100.00
53546;BME280;39432;51.902;10.844;2023-12-29T08:03:55;98644.63;;;9.71;100.00
53546;BME280;39432;51.902;10.844;2023-12-29T08:06:46;98645.72;;;9.60;100.00
53546;BME280;39432;51.902;10.844;2023-12-29T08:09:39;98650.06;;;9.87;100.00
53546;BME280;39432;51.902;10.844;2023-12-29T08:12:29;98651.69;;;9.83;100.00
53546;BME280;39432;51.902;10.844;2023-12-29T08:15:20;98659.38;;;9.81;100.00
53546;BME280;39432;51.902;10.844;2023-12-29T08:18:10;98659.91;;;9.83;100.00
53546;BME280;39432;51.902;10.844;2023-12-29T08:21:01;98654.19;;;9.79;100.00
53546;BME280;39432;51.902;10.844;2023-12-29T08:23:51;98674.66;;;9.82;100.00
53546;BME280;39432;51.902;10.844;2023-12-29T08:26:47;98676.03;;;9.89;100.00
53546;BME280;39432;51.902;10.844;2023-12-29T08:29:37;98682.31;;;9.90;100.00
53546;BME280;39432;51.902;10.844;2023-12-29T08:32:27;98675.22;;;9.79;100.00
53546;BME280;39432;51.902;10.844;2023-12-29T08:35:17;98683.41;;;9.84;100.00
53546;BME280;39432;51.902;10.844;2023-12-29T08:38:08;98688.59;;;9.80;100.00
53546;BME280;39432;51.902;10.844;2023-12-29T08:40:58;98683.66;;;9.82;100.00
53546;BME280;39432;51.902;10.844;2023-12-29T08:43:51;98688.88;;;9.84;100.00
53546;BME280;39432;51.902;10.844;2023-12-29T08:46:41;98678.47;;;9.86;100.00
53546;BME280;39432;51.902;10.844;2023-12-29T08:49:31;98691.56;;;9.89;100.00
53546;BME280;39432;51.902;10.844;2023-12-29T08:52:21;98691.63;;;9.73;100.00
53546;BME280;39432;51.902;10.844;2023-12-29T08:55:12;98668.63;;;9.95;100.00
53546;BME280;39432;51.902;10.844;2023-12-29T08:58:02;98688.28;;;10.02;100.00
53546;BME280;39432;51.902;10.844;2023-12-29T09:00:55;98689.38;;;10.06;100.00
53546;BME280;39432;51.902;10.844;2023-12-29T09:03:46;98693.22;;;10.00;100.00
53546;BME280;39432;51.902;10.844;2023-12-29T09:06:36;98671.34;;;10.00;100.00
53546;BME280;39432;51.902;10.844;2023-12-29T09:09:27;98681.69;;;10.18;100.00
53546;BME280;39432;51.902;10.844;2023-12-29T09:12:17;98663.91;;;10.26;100.00
53546;BME280;39432;51.902;10.844;2023-12-29T09:15:08;98674.56;;;10.22;100.00
53546;BME280;39432;51.902;10.844;2023-12-29T09:18:00;98680.59;;;10.29;100.00
53546;BME280;39432;51.902;10.844;2023-12-29T09:20:51;98663.34;;;10.39;100.00
53546;BME280;39432;51.902;10.844;2023-12-29T09:23:42;98662.50;;;10.44;100.00
53546;BME280;39432;51.902;10.844;2023-12-29T09:26:36;98652.03;;;10.56;100.00
53546;BME280;39432;51.902;10.844;2023-12-29T09:29:26;98651.47;;;10.59;100.00
53546;BME280;39432;51.902;10.844;2023-12-29T09:32:17;98657.75;;;10.60;100.00
53546;BME280;39432;51.902;10.844;2023-12-29T09:35:09;98660.78;;;10.58;100.00
53546;BME280;39432;51.902;10.844;2023-12-29T09:37:59;98658.50;;;10.75;100.00
53546;BME280;39432;51.902;10.844;2023-12-29T09:40:52;98662.81;;;10.87;100.00
53546;BME280;39432;51.902;10.844;2023-12-29T09:43:45;98667.47;;;10.81;100.00
53546;BME280;39432;51.902;10.844;2023-12-29T09:46:37;98681.44;;;10.85;100.00
53546;BME280;39432;51.902;10.844;2023-12-29T09:49:32;98680.44;;;10.60;100.00
53546;BME280;39432;51.902;10.844;2023-12-29T09:52:27;98679.91;;;10.63;100.00
53546;BME280;39432;51.902;10.844;2023-12-29T09:55:18;98687.84;;;10.60;100.00
53546;BME280;39432;51.902;10.844;2023-12-29T09:58:10;98697.44;;;10.57;100.00
53546;BME280;39432;51.902;10.844;2023-12-29T10:01:03;98686.50;;;10.57;100.00
53546;BME280;39432;51.902;10.844;2023-12-29T10:03:54;98680.53;;;10.45;100.00
53546;BME280;39432;51.902;10.844;2023-12-29T10:06:46;98692.56;;;10.44;100.00
53546;BME280;39432;51.902;10.844;2023-12-29T10:09:42;98695.88;;;10.36;100.00
53546;BME280;39432;51.902;10.844;2023-12-29T10:12:34;98696.72;;;10.26;100.00
53546;BME280;39432;51.902;10.844;2023-12-29T10:15:31;98695.34;;;10.28;100.00
53546;BME280;39432;51.902;10.844;2023-12-29T10:18:30;98700.25;;;10.32;100.00
53546;BME280;39432;51.902;10.844;2023-12-29T10:21:26;98695.88;;;10.20;100.00
53546;BME280;39432;51.902;10.844;2023-12-29T10:24:19;98696.41;;;10.38;100.00
53546;BME280;39432;51.902;10.844;2023-12-29T10:27:13;98699.44;;;10.31;100.00
53546;BME280;39432;51.902;10.844;2023-12-29T10:30:05;98704.06;;;10.41;100.00
53546;BME280;39432;51.902;10.844;2023-12-29T10:33:19;98684.25;;;10.64;100.00
53546;BME280;39432;51.902;10.844;2023-12-29T10:36:09;98679.44;;;10.46;100.00
53546;BME280;39432;51.902;10.844;2023-12-29T10:39:06;98675.59;;;10.47;100.00
53546;BME280;39432;51.902;10.844;2023-12-29T10:42:03;98671.25;;;10.36;100.00
53546;BME280;39432;51.902;10.844;2023-12-29T10:45:08;98659.69;;;10.54;100.00
53546;BME280;39432;51.902;10.844;2023-12-29T10:48:00;98676.38;;;10.58;100.00
53546;BME280;39432;51.902;10.844;2023-12-29T10:50:50;98683.16;;;10.65;100.00
53546;BME280;39432;51.902;10.844;2023-12-29T10:53:40;98682.66;;;10.58;100.00
53546;BME280;39432;51.902;10.844;2023-12-29T10:56:31;98676.00;;;10.74;100.00
53546;BME280;39432;51.902;10.844;2023-12-29T10:59:21;98664.56;;;10.67;100.00
53546;BME280;39432;51.902;10.844;2023-12-29T11:02:14;98651.69;;;10.73;100.00
53546;BME280;39432;51.902;10.844;2023-12-29T11:05:06;98660.28;;;10.51;100.00
53546;BME280;39432;51.902;10.844;2023-12-29T11:07:57;98665.22;;;10.44;100.00
53546;BME280;39432;51.902;10.844;2023-12-29T11:10:48;98666.25;;;10.58;100.00
53546;BME280;39432;51.902;10.844;2023-12-29T11:13:39;98669.78;;;10.64;100.00
53546;BME280;39432;51.902;10.844;2023-12-29T11:16:29;98667.72;;;10.90;100.00
53546;BME280;39432;51.902;10.844;2023-12-29T11:19:22;98662.63;;;10.73;100.00
53546;BME280;39432;51.902;10.844;2023-12-29T11:22:13;98663.22;;;10.60;100.00
53546;BME280;39432;51.902;10.844;2023-12-29T11:25:06;98655.88;;;10.55;100.00
53546;BME280;39432;51.902;10.844;2023-12-29T11:27:56;98614.91;;;10.45;100.00
53546;BME280;39432;51.902;10.844;2023-12-29T11:30:47;98593.91;;;10.35;100.00
53546;BME280;39432;51.902;10.844;2023-12-29T11:33:41;98601.44;;;10.53;100.00
53546;BME280;39432;51.902;10.844;2023-12-29T11:36:40;98582.06;;;10.50;100.00
53546;BME280;39432;51.902;10.844;2023-12-29T11:39:38;98567.09;;;10.76;100.00
53546;BME280;39432;51.902;10.844;2023-12-29T11:42:33;98576.38;;;10.80;100.00
53546;BME280;39432;51.902;10.844;2023-12-29T11:45:27;98596.50;;;11.00;100.00
53546;BME280;39432;51.902;10.844;2023-12-29T11:51:49;98607.00;;;11.22;100.00
53546;BME280;39432;51.902;10.844;2023-12-29T11:54:40;98606.44;;;11.20;100.00
53546;BME280;39432;51.902;10.844;2023-12-29T11:57:31;98586.25;;;11.16;100.00
53546;BME280;39432;51.902;10.844;2023-12-29T12:00:42;98572.19;;;11.27;100.00
53546;BME280;39432;51.902;10.844;2023-12-29T12:03:34;98571.50;;;11.41;100.00
53546;BME280;39432;51.902;10.844;2023-12-29T12:06:36;98580.91;;;11.29;100.00
53546;BME280;39432;51.902;10.844;2023-12-29T12:09:29;98570.00;;;11.24;100.00
53546;BME280;39432;51.902;10.844;2023-12-29T12:12:40;98573.38;;;11.16;100.00
53546;BME280;39432;51.902;10.844;2023-12-29T12:15:31;98587.91;;;11.12;100.00
53546;BME280;39432;51.902;10.844;2023-12-29T12:18:22;98588.72;;;11.12;100.00
53546;BME280;39432;51.902;10.844;2023-12-29T12:21:16;98584.41;;;11.06;100.00
53546;BME280;39432;51.902;10.844;2023-12-29T12:24:08;98559.72;;;11.11;100.00
53546;BME280;39432;51.902;10.844;2023-12-29T12:27:01;98551.38;;;11.26;100.00
53546;BME280;39432;51.902;10.844;2023-12-29T12:29:53;98560.63;;;11.30;100.00
53546;BME280;39432;51.902;10.844;2023-12-29T12:32:47;98558.00;;;11.20;100.00
53546;BME280;39432;51.902;10.844;2023-12-29T12:35:58;98568.94;;;11.20;100.00
53546;BME280;39432;51.902;10.844;2023-12-29T12:38:52;98566.03;;;11.12;100.00
53546;BME280;39432;51.902;10.844;2023-12-29T12:41:43;98572.31;;;11.12;100.00
53546;BME280;39432;51.902;10.844;2023-12-29T12:44:38;98552.03;;;11.13;100.00
53546;BME280;39432;51.902;10.844;2023-12-29T12:47:34;98567.16;;;11.05;100.00
53546;BME280;39432;51.902;10.844;2023-12-29T12:50:24;98565.28;;;11.01;100.00
53546;BME280;39432;51.902;10.844;2023-12-29T12:53:15;98571.25;;;11.08;100.00
53546;BME280;39432;51.902;10.844;2023-12-29T12:56:08;98569.28;;;11.14;100.00
53546;BME280;39432;51.902;10.844;2023-12-29T12:59:00;98566.88;;;11.07;100.00
53546;BME280;39432;51.902;10.844;2023-12-29T13:01:54;98553.72;;;11.09;100.00
53546;BME280;39432;51.902;10.844;2023-12-29T13:04:45;98560.06;;;11.04;100.00
53546;BME280;39432;51.902;10.844;2023-12-29T13:07:35;98558.09;;;11.10;100.00
53546;BME280;39432;51.902;10.844;2023-12-29T13:10:25;98562.59;;;10.96;100.00
53546;BME280;39432;51.902;10.844;2023-12-29T13:13:16;98561.19;;;10.98;100.00
53546;BME280;39432;51.902;10.844;2023-12-29T13:16:06;98565.38;;;10.91;100.00
53546;BME280;39432;51.902;10.844;2023-12-29T13:19:15;98573.69;;;10.75;100.00
53546;BME280;39432;51.902;10.844;2023-12-29T13:22:06;98571.56;;;10.67;100.00
53546;BME280;39432;51.902;10.844;2023-12-29T13:24:57;98574.31;;;10.62;100.00
53546;BME280;39432;51.902;10.844;2023-12-29T13:27:47;98562.56;;;10.62;100.00
53546;BME280;39432;51.902;10.844;2023-12-29T13:30:38;98559.53;;;10.63;100.00
53546;BME280;39432;51.902;10.844;2023-12-29T13:33:33;98560.34;;;10.64;100.00
53546;BME280;39432;51.902;10.844;2023-12-29T13:36:31;98575.81;;;10.84;100.00
53546;BME280;39432;51.902;10.844;2023-12-29T13:39:29;98564.28;;;10.87;100.00
53546;BME280;39432;51.902;10.844;2023-12-29T13:42:27;98567.09;;;10.76;100.00
53546;BME280;39432;51.902;10.844;2023-12-29T13:45:20;98548.44;;;10.89;100.00
53546;BME280;39432;51.902;10.844;2023-12-29T13:48:11;98553.34;;;10.87;100.00
53546;BME280;39432;51.902;10.844;2023-12-29T13:51:03;98562.66;;;10.86;100.00
53546;BME280;39432;51.902;10.844;2023-12-29T13:54:02;98582.34;;;10.88;100.00
53546;BME280;39432;51.902;10.844;2023-12-29T13:56:52;98592.84;;;10.75;100.00
53546;BME280;39432;51.902;10.844;2023-12-29T13:59:43;98577.06;;;10.62;100.00
53546;BME280;39432;51.902;10.844;2023-12-29T14:02:35;98604.50;;;10.47;100.00
53546;BME280;39432;51.902;10.844;2023-12-29T14:05:28;98611.63;;;10.38;100.00
53546;BME280;39432;51.902;10.844;2023-12-29T14:08:24;98613.88;;;10.25;100.00
53546;BME280;39432;51.902;10.844;2023-12-29T14:11:17;98619.91;;;10.22;100.00
53546;BME280;39432;51.902;10.844;2023-12-29T14:14:08;98629.19;;;10.16;100.00
53546;BME280;39432;51.902;10.844;2023-12-29T14:16:58;98615.84;;;10.10;100.00
53546;BME280;39432;51.902;10.844;2023-12-29T14:19:48;98627.56;;;10.10;100.00
53546;BME280;39432;51.902;10.844;2023-12-29T14:22:38;98628.09;;;10.22;100.00
53546;BME280;39432;51.902;10.844;2023-12-29T14:25:33;98622.06;;;10.31;100.00
53546;BME280;39432;51.902;10.844;2023-12-29T14:28:26;98611.72;;;10.27;100.00
53546;BME280;39432;51.902;10.844;2023-12-29T14:31:17;98613.84;;;10.36;100.00
53546;BME280;39432;51.902;10.844;2023-12-29T14:34:08;98598.56;;;10.29;100.00
53546;BME280;39432;51.902;10.844;2023-12-29T14:37:00;98599.88;;;10.37;100.00
53546;BME280;39432;51.902;10.844;2023-12-29T14:39:51;98587.38;;;10.26;100.00
53546;BME280;39432;51.902;10.844;2023-12-29T14:42:42;98585.38;;;10.42;100.00
53546;BME280;39432;51.902;10.844;2023-12-29T14:45:35;98579.38;;;10.40;100.00
53546;BME280;39432;51.902;10.844;2023-12-29T14:48:25;98584.31;;;10.38;100.00
53546;BME280;39432;51.902;10.844;2023-12-29T14:51:15;98589.22;;;10.41;100.00
53546;BME280;39432;51.902;10.844;2023-12-29T14:54:05;98593.25;;;10.48;100.00
53546;BME280;39432;51.902;10.844;2023-12-29T14:56:56;98586.19;;;10.42;100.00